Portada
METAR-TAF:

METAR-TAF

Aeroports :

Rivas, Nicaragua

latitud: 11-25N, longitud: 085-50W, altitud: 53 m

Observació

L'informe es va fer fa 1 hora i 35 minuts, a les 14:00 UTC
Vent 4 kt del Nord
Temperatura 26°C
Humitat 84%
Pressió 1012 hPa
Visibilitat 10 km o més
Escasses núvols a una alçada de 1200 ft, Cumulonimbus.
Núvols disperses a una alçada de 1300 ft

METAR: MNRS 121400Z 36004KT 9999 FEW012CB SCT013 26/23 Q1012 CB/E/SE/S

Hora: 09:35 (15:35 UTC)


TAF: manca

Observacions i pronòstics meteorològics de més de 4000 aeroports (METAR i TAF).

Les estacions disponibles són els punts grocs i vermells al mapa.

Posi el ratolí al punt desitjat per veure el nom de l'estació.

Feu clic per veure les observacions i els pronòstics meteorològics.

Per canviar el mapa: feu clic els botons verds amb una creu de color negre per apropar; al botó verd amb un guió per allunyar la imatge; o en les fletxes verdes per a mapes adjacents.


METAR-TAF: